sensor_id;sensor_type;location;lat;lon;timestamp;pressure;altitude;pressure_sealevel;temperature;humidity
63607;BME280;71992;52.478;-1.918;2024-02-21T00:00:18;99923.81;;;8.44;100.00
63607;BME280;71992;52.478;-1.918;2024-02-21T00:03:08;99904.31;;;8.43;100.00
63607;BME280;71992;52.478;-1.918;2024-02-21T00:05:37;99896.56;;;8.39;100.00
63607;BME280;71992;52.478;-1.918;2024-02-21T00:08:26;99897.41;;;8.39;100.00
63607;BME280;71992;52.478;-1.918;2024-02-21T00:11:16;99899.22;;;8.39;100.00
63607;BME280;71992;52.478;-1.918;2024-02-21T00:13:48;99894.94;;;8.36;100.00
63607;BME280;71992;52.478;-1.918;2024-02-21T00:16:17;99885.38;;;8.32;100.00
63607;BME280;71992;52.478;-1.918;2024-02-21T00:19:06;99865.13;;;8.29;100.00
63607;BME280;71992;52.478;-1.918;2024-02-21T00:21:55;99868.56;;;8.31;100.00
63607;BME280;71992;52.478;-1.918;2024-02-21T00:24:46;99873.09;;;8.29;100.00
63607;BME280;71992;52.478;-1.918;2024-02-21T00:27:35;99875.00;;;8.27;100.00
63607;BME280;71992;52.478;-1.918;2024-02-21T00:30:27;99872.16;;;8.30;100.00
63607;BME280;71992;52.478;-1.918;2024-02-21T00:32:56;99874.66;;;8.33;100.00
63607;BME280;71992;52.478;-1.918;2024-02-21T00:35:49;99867.59;;;8.32;100.00
63607;BME280;71992;52.478;-1.918;2024-02-21T00:38:38;99872.16;;;8.30;100.00
63607;BME280;71992;52.478;-1.918;2024-02-21T00:41:07;99875.78;;;8.29;100.00
63607;BME280;71992;52.478;-1.918;2024-02-21T00:43:57;99868.72;;;8.28;100.00
63607;BME280;71992;52.478;-1.918;2024-02-21T00:46:29;99875.84;;;8.28;100.00
63607;BME280;71992;52.478;-1.918;2024-02-21T00:49:18;99867.00;;;8.27;100.00
63607;BME280;71992;52.478;-1.918;2024-02-21T00:52:08;99842.97;;;8.29;100.00
63607;BME280;71992;52.478;-1.918;2024-02-21T00:54:37;99842.03;;;8.30;100.00
63607;BME280;71992;52.478;-1.918;2024-02-21T00:57:26;99838.59;;;8.28;100.00
63607;BME280;71992;52.478;-1.918;2024-02-21T01:00:17;99835.16;;;8.26;100.00
63607;BME280;71992;52.478;-1.918;2024-02-21T01:02:49;99823.59;;;8.27;100.00
63607;BME280;71992;52.478;-1.918;2024-02-21T01:05:38;99820.03;;;8.26;100.00
63607;BME280;71992;52.478;-1.918;2024-02-21T01:08:27;99810.34;;;8.25;100.00
63607;BME280;71992;52.478;-1.918;2024-02-21T01:11:17;99800.75;;;8.23;100.00
63607;BME280;71992;52.478;-1.918;2024-02-21T01:13:46;99801.53;;;8.25;100.00
63607;BME280;71992;52.478;-1.918;2024-02-21T01:16:35;99780.00;;;8.29;100.00
63607;BME280;71992;52.478;-1.918;2024-02-21T01:19:27;99765.81;;;8.29;100.00
63607;BME280;71992;52.478;-1.918;2024-02-21T01:21:57;99772.16;;;8.26;100.00
63607;BME280;71992;52.478;-1.918;2024-02-21T01:24:26;99763.41;;;8.24;100.00
63607;BME280;71992;52.478;-1.918;2024-02-21T01:27:15;99768.06;;;8.21;100.00
63607;BME280;71992;52.478;-1.918;2024-02-21T01:30:06;99758.50;;;8.16;100.00
63607;BME280;71992;52.478;-1.918;2024-02-21T01:32:56;99741.63;;;8.18;100.00
63607;BME280;71992;52.478;-1.918;2024-02-21T01:35:49;99741.63;;;8.18;100.00
63607;BME280;71992;52.478;-1.918;2024-02-21T01:38:38;99734.56;;;8.16;100.00
63607;BME280;71992;52.478;-1.918;2024-02-21T01:41:29;99732.63;;;8.20;100.00
63607;BME280;71992;52.478;-1.918;2024-02-21T01:43:59;99727.38;;;8.19;100.00
63607;BME280;71992;52.478;-1.918;2024-02-21T01:46:48;99714.25;;;8.15;100.00
63607;BME280;71992;52.478;-1.918;2024-02-21T01:49:39;99716.03;;;8.15;100.00
63607;BME280;71992;52.478;-1.918;2024-02-21T01:52:31;99700.00;;;8.16;100.00
63607;BME280;71992;52.478;-1.918;2024-02-21T01:55:20;99700.19;;;8.13;100.00
63607;BME280;71992;52.478;-1.918;2024-02-21T01:57:50;99696.66;;;8.13;100.00
63607;BME280;71992;52.478;-1.918;2024-02-21T02:00:40;99683.19;;;8.16;100.00
63607;BME280;71992;52.478;-1.918;2024-02-21T02:03:31;99696.50;;;8.16;100.00
63607;BME280;71992;52.478;-1.918;2024-02-21T02:06:00;99697.59;;;8.12;100.00
63607;BME280;71992;52.478;-1.918;2024-02-21T02:08:53;99694.88;;;8.13;100.00
63607;BME280;71992;52.478;-1.918;2024-02-21T02:11:43;99686.03;;;8.13;100.00
63607;BME280;71992;52.478;-1.918;2024-02-21T02:14:33;99690.66;;;8.09;100.00
63607;BME280;71992;52.478;-1.918;2024-02-21T02:17:22;99688.19;;;8.06;100.00
63607;BME280;71992;52.478;-1.918;2024-02-21T02:20:12;99678.38;;;8.07;100.00
63607;BME280;71992;52.478;-1.918;2024-02-21T02:23:07;99668.78;;;8.04;100.00
63607;BME280;71992;52.478;-1.918;2024-02-21T02:25:40;99672.22;;;8.06;100.00
63607;BME280;71992;52.478;-1.918;2024-02-21T02:28:30;99653.59;;;8.06;100.00
63607;BME280;71992;52.478;-1.918;2024-02-21T02:31:19;99652.56;;;8.09;100.00
63607;BME280;71992;52.478;-1.918;2024-02-21T02:33:48;99633.94;;;8.09;100.00
63607;BME280;71992;52.478;-1.918;2024-02-21T02:36:38;99630.31;;;8.10;100.00
63607;BME280;71992;52.478;-1.918;2024-02-21T02:39:27;99612.94;;;8.04;100.00
63607;BME280;71992;52.478;-1.918;2024-02-21T02:42:19;99602.31;;;8.04;100.00
63607;BME280;71992;52.478;-1.918;2024-02-21T02:44:48;99594.41;;;8.03;100.00
63607;BME280;71992;52.478;-1.918;2024-02-21T02:47:39;99596.97;;;8.04;100.00
63607;BME280;71992;52.478;-1.918;2024-02-21T02:50:29;99588.13;;;8.04;100.00
63607;BME280;71992;52.478;-1.918;2024-02-21T02:53:18;99569.44;;;8.05;100.00
63607;BME280;71992;52.478;-1.918;2024-02-21T02:56:14;99557.16;;;8.03;100.00
63607;BME280;71992;52.478;-1.918;2024-02-21T02:58:46;99554.25;;;8.07;100.00
63607;BME280;71992;52.478;-1.918;2024-02-21T03:01:35;99545.56;;;8.04;100.00
63607;BME280;71992;52.478;-1.918;2024-02-21T03:04:24;99535.81;;;8.04;100.00
63607;BME280;71992;52.478;-1.918;2024-02-21T03:07:14;99530.31;;;8.07;100.00
63607;BME280;71992;52.478;-1.918;2024-02-21T03:10:04;99520.63;;;8.06;100.00
63607;BME280;71992;52.478;-1.918;2024-02-21T03:12:55;99512.66;;;8.06;100.00
63607;BME280;71992;52.478;-1.918;2024-02-21T03:15:47;99517.78;;;8.09;100.00
63607;BME280;71992;52.478;-1.918;2024-02-21T03:18:36;99506.28;;;8.09;100.00
63607;BME280;71992;52.478;-1.918;2024-02-21T03:21:26;99493.84;;;8.09;100.00
63607;BME280;71992;52.478;-1.918;2024-02-21T03:24:15;99494.53;;;8.13;100.00
63607;BME280;71992;52.478;-1.918;2024-02-21T03:27:04;99476.00;;;8.11;100.00
63607;BME280;71992;52.478;-1.918;2024-02-21T03:29:54;99463.53;;;8.12;100.00
63607;BME280;71992;52.478;-1.918;2024-02-21T03:32:46;99456.41;;;8.12;100.00
63607;BME280;71992;52.478;-1.918;2024-02-21T03:35:36;99451.00;;;8.14;100.00
63607;BME280;71992;52.478;-1.918;2024-02-21T03:38:05;99433.44;;;8.11;100.00
63607;BME280;71992;52.478;-1.918;2024-02-21T03:40:55;99441.91;;;8.18;100.00
63607;BME280;71992;52.478;-1.918;2024-02-21T03:43:44;99439.03;;;8.21;100.00
63607;BME280;71992;52.478;-1.918;2024-02-21T03:46:34;99420.63;;;8.18;100.00
63607;BME280;71992;52.478;-1.918;2024-02-21T03:49:26;99417.84;;;8.20;100.00
63607;BME280;71992;52.478;-1.918;2024-02-21T03:51:55;99398.28;;;8.21;100.00
63607;BME280;71992;52.478;-1.918;2024-02-21T03:54:45;99394.03;;;8.18;100.00
63607;BME280;71992;52.478;-1.918;2024-02-21T03:57:34;99400.28;;;8.17;100.00
63607;BME280;71992;52.478;-1.918;2024-02-21T04:00:08;99395.06;;;8.15;100.00
63607;BME280;71992;52.478;-1.918;2024-02-21T04:02:59;99380.81;;;8.16;100.00
63607;BME280;71992;52.478;-1.918;2024-02-21T04:05:51;99366.66;;;8.16;100.00
63607;BME280;71992;52.478;-1.918;2024-02-21T04:08:41;99364.38;;;8.10;100.00
63607;BME280;71992;52.478;-1.918;2024-02-21T04:11:30;99350.22;;;8.09;100.00
63607;BME280;71992;52.478;-1.918;2024-02-21T04:14:19;99343.19;;;8.08;100.00
63607;BME280;71992;52.478;-1.918;2024-02-21T04:16:48;99334.19;;;8.11;100.00
63607;BME280;71992;52.478;-1.918;2024-02-21T04:19:18;99329.03;;;8.08;100.00
63607;BME280;71992;52.478;-1.918;2024-02-21T04:21:50;99320.13;;;8.09;100.00
63607;BME280;71992;52.478;-1.918;2024-02-21T04:24:39;99319.38;;;8.07;100.00
63607;BME280;71992;52.478;-1.918;2024-02-21T04:27:28;99318.13;;;7.98;100.00
63607;BME280;71992;52.478;-1.918;2024-02-21T04:30:18;99319.16;;;7.95;100.00
63607;BME280;71992;52.478;-1.918;2024-02-21T04:33:07;99315.66;;;7.95;100.00
63607;BME280;71992;52.478;-1.918;2024-02-21T04:35:58;99314.91;;;7.93;100.00
63607;BME280;71992;52.478;-1.918;2024-02-21T04:38:31;99307.22;;;7.88;100.00
63607;BME280;71992;52.478;-1.918;2024-02-21T04:41:00;99307.28;;;7.87;100.00
63607;BME280;71992;52.478;-1.918;2024-02-21T04:43:30;99289.06;;;7.81;100.00
63607;BME280;71992;52.478;-1.918;2024-02-21T04:45:59;99282.97;;;7.79;100.00
63607;BME280;71992;52.478;-1.918;2024-02-21T04:48:48;99271.56;;;7.77;100.00
63607;BME280;71992;52.478;-1.918;2024-02-21T04:51:39;99258.13;;;7.65;100.00
63607;BME280;71992;52.478;-1.918;2024-02-21T04:54:32;99252.03;;;7.63;100.00
63607;BME280;71992;52.478;-1.918;2024-02-21T04:57:21;99259.25;;;7.61;100.00
63607;BME280;71992;52.478;-1.918;2024-02-21T05:00:12;99248.50;;;7.63;100.00
63607;BME280;71992;52.478;-1.918;2024-02-21T05:03:02;99225.84;;;7.57;100.00
63607;BME280;71992;52.478;-1.918;2024-02-21T05:05:51;99220.06;;;7.50;100.00
63607;BME280;71992;52.478;-1.918;2024-02-21T05:08:20;99212.56;;;7.43;100.00
63607;BME280;71992;52.478;-1.918;2024-02-21T05:11:14;99218.81;;;7.42;100.00
63607;BME280;71992;52.478;-1.918;2024-02-21T05:13:44;99207.69;;;7.35;100.00
63607;BME280;71992;52.478;-1.918;2024-02-21T05:16:33;99190.34;;;7.29;100.00
63607;BME280;71992;52.478;-1.918;2024-02-21T05:19:02;99166.63;;;7.26;100.00
63607;BME280;71992;52.478;-1.918;2024-02-21T05:21:52;99189.03;;;7.22;100.00
63607;BME280;71992;52.478;-1.918;2024-02-21T05:24:21;99167.28;;;7.16;100.00
63607;BME280;71992;52.478;-1.918;2024-02-21T05:27:13;99174.56;;;7.12;100.00
63607;BME280;71992;52.478;-1.918;2024-02-21T05:30:06;99156.94;;;7.11;100.00
63607;BME280;71992;52.478;-1.918;2024-02-21T05:32:56;99152.22;;;7.16;100.00
63607;BME280;71992;52.478;-1.918;2024-02-21T05:35:45;99156.66;;;7.16;100.00
63607;BME280;71992;52.478;-1.918;2024-02-21T05:38:35;99149.75;;;7.13;100.00
63607;BME280;71992;52.478;-1.918;2024-02-21T05:41:05;99123.28;;;7.11;100.00
63607;BME280;71992;52.478;-1.918;2024-02-21T05:43:37;99122.16;;;7.16;100.00
63607;BME280;71992;52.478;-1.918;2024-02-21T05:46:26;99118.63;;;7.15;100.00
63607;BME280;71992;52.478;-1.918;2024-02-21T05:48:57;99102.81;;;7.14;100.00
63607;BME280;71992;52.478;-1.918;2024-02-21T05:51:46;99095.88;;;7.11;100.00
63607;BME280;71992;52.478;-1.918;2024-02-21T05:54:16;99093.22;;;7.11;100.00
63607;BME280;71992;52.478;-1.918;2024-02-21T05:57:05;99079.06;;;7.10;100.00
63607;BME280;71992;52.478;-1.918;2024-02-21T05:59:57;99078.44;;;7.07;100.00
63607;BME280;71992;52.478;-1.918;2024-02-21T06:02:27;99064.47;;;7.03;100.00
63607;BME280;71992;52.478;-1.918;2024-02-21T06:05:17;99054.53;;;7.07;100.00
63607;BME280;71992;52.478;-1.918;2024-02-21T06:08:06;99024.50;;;7.06;100.00
63607;BME280;71992;52.478;-1.918;2024-02-21T06:10:36;99013.75;;;7.08;100.00
63607;BME280;71992;52.478;-1.918;2024-02-21T06:13:25;99013.88;;;7.06;100.00
63607;BME280;71992;52.478;-1.918;2024-02-21T06:16:17;99008.44;;;7.08;100.00
63607;BME280;71992;52.478;-1.918;2024-02-21T06:19:06;98998.56;;;7.10;100.00
63607;BME280;71992;52.478;-1.918;2024-02-21T06:21:55;99004.72;;;7.10;100.00
63607;BME280;71992;52.478;-1.918;2024-02-21T06:24:45;98980.00;;;7.10;100.00
63607;BME280;71992;52.478;-1.918;2024-02-21T06:27:34;98974.50;;;7.13;100.00
63607;BME280;71992;52.478;-1.918;2024-02-21T06:30:23;98972.56;;;7.15;100.00
63607;BME280;71992;52.478;-1.918;2024-02-21T06:33:16;98958.38;;;7.16;100.00
63607;BME280;71992;52.478;-1.918;2024-02-21T06:36:08;98965.56;;;7.14;100.00
63607;BME280;71992;52.478;-1.918;2024-02-21T06:39:01;98959.41;;;7.14;100.00
63607;BME280;71992;52.478;-1.918;2024-02-21T06:41:53;98931.91;;;7.15;100.00
63607;BME280;71992;52.478;-1.918;2024-02-21T06:44:44;98909.91;;;7.13;100.00
63607;BME280;71992;52.478;-1.918;2024-02-21T06:47:13;98910.78;;;7.13;100.00
63607;BME280;71992;52.478;-1.918;2024-02-21T06:50:06;98899.28;;;7.13;100.00
63607;BME280;71992;52.478;-1.918;2024-02-21T06:52:55;98887.81;;;7.12;100.00
63607;BME280;71992;52.478;-1.918;2024-02-21T06:55:45;98889.72;;;7.10;100.00
63607;BME280;71992;52.478;-1.918;2024-02-21T06:58:34;98887.28;;;7.07;100.00
63607;BME280;71992;52.478;-1.918;2024-02-21T07:01:23;98877.59;;;7.06;100.00
63607;BME280;71992;52.478;-1.918;2024-02-21T07:04:13;98861.94;;;7.16;100.00
63607;BME280;71992;52.478;-1.918;2024-02-21T07:07:05;98847.78;;;7.15;100.00
63607;BME280;71992;52.478;-1.918;2024-02-21T07:09:54;98842.38;;;7.17;100.00
63607;BME280;71992;52.478;-1.918;2024-02-21T07:12:43;98836.00;;;7.19;100.00
63607;BME280;71992;52.478;-1.918;2024-02-21T07:15:33;98820.94;;;7.20;100.00
63607;BME280;71992;52.478;-1.918;2024-02-21T07:18:02;98817.44;;;7.19;100.00
63607;BME280;71992;52.478;-1.918;2024-02-21T07:20:32;98800.56;;;7.20;100.00
63607;BME280;71992;52.478;-1.918;2024-02-21T07:23:26;98798.66;;;7.22;100.00
63607;BME280;71992;52.478;-1.918;2024-02-21T07:26:15;98787.91;;;7.24;100.00
63607;BME280;71992;52.478;-1.918;2024-02-21T07:29:04;98804.19;;;7.32;100.00
63607;BME280;71992;52.478;-1.918;2024-02-21T07:31:54;98792.53;;;7.47;100.00
63607;BME280;71992;52.478;-1.918;2024-02-21T07:34:43;98790.44;;;7.65;100.00
63607;BME280;71992;52.478;-1.918;2024-02-21T07:37:33;98773.72;;;7.76;100.00
63607;BME280;71992;52.478;-1.918;2024-02-21T07:40:25;98758.63;;;7.77;100.00
63607;BME280;71992;52.478;-1.918;2024-02-21T07:43:14;98743.97;;;7.71;100.00
63607;BME280;71992;52.478;-1.918;2024-02-21T07:46:03;98747.03;;;7.78;100.00
63607;BME280;71992;52.478;-1.918;2024-02-21T07:48:53;98728.97;;;7.83;100.00
63607;BME280;71992;52.478;-1.918;2024-02-21T07:51:42;98731.31;;;7.74;100.00
63607;BME280;71992;52.478;-1.918;2024-02-21T07:54:12;98737.81;;;7.70;100.00
63607;BME280;71992;52.478;-1.918;2024-02-21T07:56:44;98723.22;;;7.76;100.00
63607;BME280;71992;52.478;-1.918;2024-02-21T07:59:33;98713.16;;;7.68;100.00
63607;BME280;71992;52.478;-1.918;2024-02-21T08:02:23;98711.53;;;7.79;100.00
63607;BME280;71992;52.478;-1.918;2024-02-21T08:05:12;98713.44;;;7.77;100.00
63607;BME280;71992;52.478;-1.918;2024-02-21T08:08:02;98698.47;;;7.76;100.00
63607;BME280;71992;52.478;-1.918;2024-02-21T08:10:51;98695.06;;;7.73;100.00
63607;BME280;71992;52.478;-1.918;2024-02-21T08:13:44;98696.31;;;7.81;100.00
63607;BME280;71992;52.478;-1.918;2024-02-21T08:16:14;98687.41;;;7.82;100.00
63607;BME280;71992;52.478;-1.918;2024-02-21T08:19:04;98681.13;;;7.83;100.00
63607;BME280;71992;52.478;-1.918;2024-02-21T08:21:53;98669.13;;;7.77;100.00
63607;BME280;71992;52.478;-1.918;2024-02-21T08:24:42;98661.03;;;7.79;100.00
63607;BME280;71992;52.478;-1.918;2024-02-21T08:27:31;98643.28;;;7.79;100.00
63607;BME280;71992;52.478;-1.918;2024-02-21T08:30:05;98643.78;;;7.97;100.00
63607;BME280;71992;52.478;-1.918;2024-02-21T08:32:55;98634.94;;;7.97;100.00
63607;BME280;71992;52.478;-1.918;2024-02-21T08:35:24;98637.72;;;7.95;100.00
63607;BME280;71992;52.478;-1.918;2024-02-21T08:38:14;98624.63;;;7.92;100.00
63607;BME280;71992;52.478;-1.918;2024-02-21T08:40:43;98619.44;;;7.90;100.00
63607;BME280;71992;52.478;-1.918;2024-02-21T08:43:13;98611.56;;;7.89;100.00
63607;BME280;71992;52.478;-1.918;2024-02-21T08:46:05;98598.28;;;7.89;100.00
63607;BME280;71992;52.478;-1.918;2024-02-21T08:48:54;98586.91;;;7.87;100.00
63607;BME280;71992;52.478;-1.918;2024-02-21T08:51:23;98576.91;;;7.90;100.00
63607;BME280;71992;52.478;-1.918;2024-02-21T08:54:13;98572.19;;;7.94;100.00
63607;BME280;71992;52.478;-1.918;2024-02-21T08:57:03;98563.97;;;7.86;100.00
63607;BME280;71992;52.478;-1.918;2024-02-21T08:59:54;98556.53;;;7.78;100.00
63607;BME280;71992;52.478;-1.918;2024-02-21T09:02:26;98537.19;;;7.76;100.00
63607;BME280;71992;52.478;-1.918;2024-02-21T09:05:15;98525.47;;;7.79;100.00
63607;BME280;71992;52.478;-1.918;2024-02-21T09:07:45;98518.25;;;7.81;100.00
63607;BME280;71992;52.478;-1.918;2024-02-21T09:10:34;98520.91;;;7.81;100.00
63607;BME280;71992;52.478;-1.918;2024-02-21T09:13:03;98491.47;;;7.84;100.00
63607;BME280;71992;52.478;-1.918;2024-02-21T09:15:34;98494.63;;;7.89;100.00
63607;BME280;71992;52.478;-1.918;2024-02-21T09:18:06;98490.63;;;7.94;100.00
63607;BME280;71992;52.478;-1.918;2024-02-21T09:20:35;98472.28;;;7.91;100.00
63607;BME280;71992;52.478;-1.918;2024-02-21T09:23:06;98469.28;;;7.96;100.00
63607;BME280;71992;52.478;-1.918;2024-02-21T09:25:56;98462.38;;;7.93;100.00
63607;BME280;71992;52.478;-1.918;2024-02-21T09:28:46;98453.31;;;7.96;100.00
63607;BME280;71992;52.478;-1.918;2024-02-21T09:31:36;98450.03;;;7.92;100.00
63607;BME280;71992;52.478;-1.918;2024-02-21T09:34:28;98425.75;;;7.86;100.00
63607;BME280;71992;52.478;-1.918;2024-02-21T09:36:57;98444.59;;;7.94;100.00
63607;BME280;71992;52.478;-1.918;2024-02-21T09:39:47;98423.88;;;8.10;100.00
63607;BME280;71992;52.478;-1.918;2024-02-21T09:42:39;98393.28;;;8.05;100.00
63607;BME280;71992;52.478;-1.918;2024-02-21T09:45:18;98395.56;;;7.98;100.00
63607;BME280;71992;52.478;-1.918;2024-02-21T09:48:30;98383.13;;;7.99;100.00
63607;BME280;71992;52.478;-1.918;2024-02-21T09:51:28;98378.63;;;7.99;100.00
63607;BME280;71992;52.478;-1.918;2024-02-21T09:53:59;98370.66;;;7.99;100.00
63607;BME280;71992;52.478;-1.918;2024-02-21T09:56:49;98360.75;;;7.90;100.00
63607;BME280;71992;52.478;-1.918;2024-02-21T09:59:19;98363.06;;;8.06;100.00
63607;BME280;71992;52.478;-1.918;2024-02-21T10:01:50;98357.88;;;7.93;100.00
63607;BME280;71992;52.478;-1.918;2024-02-21T10:04:20;98346.25;;;7.94;100.00
63607;BME280;71992;52.478;-1.918;2024-02-21T10:07:12;98326.69;;;7.95;100.00
63607;BME280;71992;52.478;-1.918;2024-02-21T10:10:02;98322.13;;;7.97;100.00
63607;BME280;71992;52.478;-1.918;2024-02-21T10:12:52;98310.88;;;8.05;100.00
63607;BME280;71992;52.478;-1.918;2024-02-21T10:15:41;98295.19;;;8.13;100.00
63607;BME280;71992;52.478;-1.918;2024-02-21T10:18:35;98274.47;;;8.28;100.00
63607;BME280;71992;52.478;-1.918;2024-02-21T10:21:25;98266.97;;;8.22;100.00
63607;BME280;71992;52.478;-1.918;2024-02-21T10:24:27;98273.19;;;8.11;100.00
63607;BME280;71992;52.478;-1.918;2024-02-21T10:27:17;98269.66;;;8.10;100.00
63607;BME280;71992;52.478;-1.918;2024-02-21T10:30:13;98247.06;;;8.16;100.00
63607;BME280;71992;52.478;-1.918;2024-02-21T10:33:05;98254.41;;;8.24;100.00
63607;BME280;71992;52.478;-1.918;2024-02-21T10:35:55;98232.56;;;8.20;100.00
63607;BME280;71992;52.478;-1.918;2024-02-21T10:38:55;98224.44;;;8.22;100.00
63607;BME280;71992;52.478;-1.918;2024-02-21T10:41:47;98253.31;;;8.26;100.00
63607;BME280;71992;52.478;-1.918;2024-02-21T10:44:37;98232.66;;;8.30;100.00
63607;BME280;71992;52.478;-1.918;2024-02-21T10:47:28;98222.25;;;8.38;100.00
63607;BME280;71992;52.478;-1.918;2024-02-21T10:50:04;98207.25;;;8.37;100.00
63607;BME280;71992;52.478;-1.918;2024-02-21T10:53:01;98212.22;;;8.42;100.00
63607;BME280;71992;52.478;-1.918;2024-02-21T10:55:38;98202.66;;;8.50;100.00
63607;BME280;71992;52.478;-1.918;2024-02-21T10:58:13;98186.69;;;8.50;100.00
63607;BME280;71992;52.478;-1.918;2024-02-21T11:01:05;98182.81;;;8.54;100.00
63607;BME280;71992;52.478;-1.918;2024-02-21T11:03:56;98153.41;;;8.56;100.00
63607;BME280;71992;52.478;-1.918;2024-02-21T11:06:26;98176.34;;;8.68;100.00
63607;BME280;71992;52.478;-1.918;2024-02-21T11:09:17;98172.03;;;8.56;100.00
63607;BME280;71992;52.478;-1.918;2024-02-21T11:12:07;98169.59;;;8.64;100.00
63607;BME280;71992;52.478;-1.918;2024-02-21T11:15:08;98152.50;;;8.67;100.00
63607;BME280;71992;52.478;-1.918;2024-02-21T11:18:00;98153.25;;;8.69;100.00
63607;BME280;71992;52.478;-1.918;2024-02-21T11:20:50;98149.34;;;8.73;100.00
63607;BME280;71992;52.478;-1.918;2024-02-21T11:23:25;98153.25;;;8.69;100.00
63607;BME280;71992;52.478;-1.918;2024-02-21T11:26:05;98131.00;;;8.70;100.00
63607;BME280;71992;52.478;-1.918;2024-02-21T11:28:34;98140.06;;;8.67;100.00
63607;BME280;71992;52.478;-1.918;2024-02-21T11:31:26;98120.19;;;8.71;100.00
63607;BME280;71992;52.478;-1.918;2024-02-21T11:33:57;98132.16;;;8.77;100.00
63607;BME280;71992;52.478;-1.918;2024-02-21T11:36:47;98118.84;;;8.77;100.00
63607;BME280;71992;52.478;-1.918;2024-02-21T11:39:38;98124.84;;;8.90;100.00
63607;BME280;71992;52.478;-1.918;2024-02-21T11:42:27;98101.94;;;8.88;100.00
63607;BME280;71992;52.478;-1.918;2024-02-21T11:45:18;98100.28;;;8.87;100.00
63607;BME280;71992;52.478;-1.918;2024-02-21T11:47:50;98096.38;;;8.91;100.00
63607;BME280;71992;52.478;-1.918;2024-02-21T11:50:21;98064.03;;;8.95;100.00
63607;BME280;71992;52.478;-1.918;2024-02-21T11:53:11;98070.66;;;9.01;100.00
63607;BME280;71992;52.478;-1.918;2024-02-21T11:55:40;98075.34;;;9.09;100.00
63607;BME280;71992;52.478;-1.918;2024-02-21T11:58:30;98065.13;;;9.14;100.00
63607;BME280;71992;52.478;-1.918;2024-02-21T12:01:20;98064.72;;;9.18;100.00
63607;BME280;71992;52.478;-1.918;2024-02-21T12:04:13;98058.00;;;9.24;100.00
63607;BME280;71992;52.478;-1.918;2024-02-21T12:07:03;98035.31;;;9.30;100.00
63607;BME280;71992;52.478;-1.918;2024-02-21T12:09:54;98024.94;;;9.27;100.00
63607;BME280;71992;52.478;-1.918;2024-02-21T12:12:23;98010.22;;;9.32;100.00
63607;BME280;71992;52.478;-1.918;2024-02-21T12:15:14;98001.41;;;9.32;100.00
63607;BME280;71992;52.478;-1.918;2024-02-21T12:18:04;98001.66;;;9.29;100.00
63607;BME280;71992;52.478;-1.918;2024-02-21T12:20:58;97976.75;;;9.39;100.00
63607;BME280;71992;52.478;-1.918;2024-02-21T12:23:47;97966.91;;;9.40;100.00
63607;BME280;71992;52.478;-1.918;2024-02-21T12:26:37;97946.47;;;9.40;100.00
63607;BME280;71992;52.478;-1.918;2024-02-21T12:29:26;97947.59;;;9.48;100.00
63607;BME280;71992;52.478;-1.918;2024-02-21T12:31:56;97961.34;;;9.53;100.00
63607;BME280;71992;52.478;-1.918;2024-02-21T12:34:25;97959.69;;;9.52;100.00
63607;BME280;71992;52.478;-1.918;2024-02-21T12:37:21;97942.81;;;9.51;100.00
63607;BME280;71992;52.478;-1.918;2024-02-21T12:39:51;97931.06;;;9.54;100.00
63607;BME280;71992;52.478;-1.918;2024-02-21T12:42:40;97923.91;;;9.54;100.00
63607;BME280;71992;52.478;-1.918;2024-02-21T12:45:29;97919.25;;;9.47;100.00
63607;BME280;71992;52.478;-1.918;2024-02-21T12:48:20;97913.78;;;9.58;100.00
63607;BME280;71992;52.478;-1.918;2024-02-21T12:51:10;97924.03;;;9.53;100.00
63607;BME280;71992;52.478;-1.918;2024-02-21T12:54:02;97904.13;;;9.57;100.00
63607;BME280;71992;52.478;-1.918;2024-02-21T12:56:51;97888.97;;;9.57;100.00
63607;BME280;71992;52.478;-1.918;2024-02-21T12:59:41;97904.84;;;9.59;100.00
63607;BME280;71992;52.478;-1.918;2024-02-21T13:02:30;97894.44;;;9.56;100.00
63607;BME280;71992;52.478;-1.918;2024-02-21T13:05:01;97891.22;;;9.62;100.00
63607;BME280;71992;52.478;-1.918;2024-02-21T13:07:31;97895.16;;;9.58;100.00
63607;BME280;71992;52.478;-1.918;2024-02-21T13:10:06;97903.84;;;9.50;100.00
63607;BME280;71992;52.478;-1.918;2024-02-21T13:12:55;97893.59;;;9.55;100.00
63607;BME280;71992;52.478;-1.918;2024-02-21T13:15:45;97894.19;;;9.59;100.00
63607;BME280;71992;52.478;-1.918;2024-02-21T13:18:35;97903.00;;;9.59;100.00
63607;BME280;71992;52.478;-1.918;2024-02-21T13:21:05;97886.72;;;9.62;100.00
63607;BME280;71992;52.478;-1.918;2024-02-21T13:23:55;97880.97;;;9.67;100.00
63607;BME280;71992;52.478;-1.918;2024-02-21T13:26:47;97879.19;;;9.68;100.00
63607;BME280;71992;52.478;-1.918;2024-02-21T13:29:36;97883.66;;;9.57;100.00
63607;BME280;71992;52.478;-1.918;2024-02-21T13:32:06;97869.22;;;9.40;100.00
63607;BME280;71992;52.478;-1.918;2024-02-21T13:34:58;97861.19;;;9.31;100.00
63607;BME280;71992;52.478;-1.918;2024-02-21T13:37:49;97843.97;;;9.25;100.00
63607;BME280;71992;52.478;-1.918;2024-02-21T13:40:39;97831.75;;;9.23;100.00
63607;BME280;71992;52.478;-1.918;2024-02-21T13:43:31;97824.75;;;9.22;100.00
63607;BME280;71992;52.478;-1.918;2024-02-21T13:46:20;97821.94;;;9.23;100.00
63607;BME280;71992;52.478;-1.918;2024-02-21T13:49:09;97826.28;;;9.24;100.00
63607;BME280;71992;52.478;-1.918;2024-02-21T13:51:39;97826.16;;;9.26;100.00
63607;BME280;71992;52.478;-1.918;2024-02-21T13:54:30;97825.72;;;9.30;100.00
63607;BME280;71992;52.478;-1.918;2024-02-21T13:57:20;97816.63;;;9.33;100.00
63607;BME280;71992;52.478;-1.918;2024-02-21T14:00:13;97833.31;;;9.35;100.00
63607;BME280;71992;52.478;-1.918;2024-02-21T14:03:04;97828.97;;;9.34;100.00
63607;BME280;71992;52.478;-1.918;2024-02-21T14:05:33;97840.47;;;9.34;100.00
63607;BME280;71992;52.478;-1.918;2024-02-21T14:08:23;97838.63;;;9.35;100.00
63607;BME280;71992;52.478;-1.918;2024-02-21T14:11:13;97822.94;;;9.32;100.00
63607;BME280;71992;52.478;-1.918;2024-02-21T14:13:43;97827.97;;;9.35;100.00
63607;BME280;71992;52.478;-1.918;2024-02-21T14:16:35;97834.13;;;9.35;100.00
63607;BME280;71992;52.478;-1.918;2024-02-21T14:19:24;97823.34;;;9.37;100.00
63607;BME280;71992;52.478;-1.918;2024-02-21T14:22:13;97825.06;;;9.38;100.00